Time;durP1;ratioP1;P1;durP2;ratioP2;P2;SDS_P1;SDS_P2;PMS_P1;PMS_P2;Temp;Humidity;BMP_temperature;BMP_pressure;BME280_temperature;BME280_humidity;BME280_pressure;Samples;Min_cycle;Max_cycle;Signal;HPM_P1;HPM_P2
2023/11/27 00:00:34;;;;;;;24.23;14.77;;;;;;;;;;5094836;28;20028;-28
2023/11/27 00:02:59;;;;;;;29.17;15.27;;;;;;;;;;5095321;28;20027;-28
2023/11/27 00:05:25;;;;;;;25.23;15.37;;;;;;;;;;5094773;28;20670;-29
2023/11/27 00:07:50;;;;;;;25.02;14.65;;;;;;;;;;5095295;28;20246;-28
2023/11/27 00:10:15;;;;;;;22.03;14.27;;;;;;;;;;5094671;28;20043;-29
2023/11/27 00:12:40;;;;;;;22.95;14.98;;;;;;;;;;5094447;28;20354;-29
2023/11/27 00:15:06;;;;;;;24.35;14.93;;;;;;;;;;5094835;28;20039;-29
2023/11/27 00:17:31;;;;;;;22.95;14.45;;;;;;;;;;5094533;28;20459;-29
2023/11/27 00:19:56;;;;;;;23.17;14.23;;;;;;;;;;5095029;28;20012;-28
2023/11/27 00:22:21;;;;;;;24.85;13.93;;;;;;;;;;5094389;28;20364;-28
2023/11/27 00:24:47;;;;;;;23.75;14.70;;;;;;;;;;5094844;28;20102;-29
2023/11/27 00:27:12;;;;;;;20.90;13.17;;;;;;;;;;5094626;28;20162;-28
2023/11/27 00:29:37;;;;;;;22.10;14.47;;;;;;;;;;5094321;28;20740;-28
2023/11/27 00:32:03;;;;;;;21.30;13.98;;;;;;;;;;5094284;28;20304;-28
2023/11/27 00:34:28;;;;;;;24.95;15.48;;;;;;;;;;5094549;28;20027;-28
2023/11/27 00:36:54;;;;;;;26.40;15.20;;;;;;;;;;5094112;28;20107;-29
2023/11/27 00:39:19;;;;;;;22.10;14.80;;;;;;;;;;5094771;28;20035;-28
2023/11/27 00:41:44;;;;;;;21.30;14.20;;;;;;;;;;5094324;28;20324;-29
2023/11/27 00:44:09;;;;;;;24.27;14.37;;;;;;;;;;5094651;28;20012;-29
2023/11/27 00:46:34;;;;;;;24.38;14.50;;;;;;;;;;5094030;28;20395;-28
2023/11/27 00:48:59;;;;;;;23.57;14.83;;;;;;;;;;5094567;28;20016;-29
2023/11/27 00:51:25;;;;;;;23.73;14.13;;;;;;;;;;5094207;28;20329;-29
2023/11/27 00:53:50;;;;;;;23.83;13.37;;;;;;;;;;5094514;28;20293;-29
2023/11/27 00:56:15;;;;;;;23.43;13.60;;;;;;;;;;5093709;28;20672;-29
2023/11/27 00:58:40;;;;;;;25.37;13.70;;;;;;;;;;5094351;28;20250;-29
2023/11/27 01:01:05;;;;;;;25.77;13.07;;;;;;;;;;5094067;28;20250;-28
2023/11/27 01:03:31;;;;;;;30.13;14.43;;;;;;;;;;5093969;28;20073;-29
2023/11/27 01:05:56;;;;;;;26.83;14.25;;;;;;;;;;5093733;28;20019;-29
2023/11/27 01:08:22;;;;;;;25.10;14.15;;;;;;;;;;5094050;28;20476;-29
2023/11/27 01:10:48;;;;;;;27.60;14.80;;;;;;;;;;5093686;28;20101;-29
2023/11/27 01:13:14;;;;;;;20.58;12.75;;;;;;;;;;5093866;28;20024;-28
2023/11/27 01:15:40;;;;;;;27.02;14.02;;;;;;;;;;5093490;28;20016;-29
2023/11/27 01:18:05;;;;;;;25.92;14.77;;;;;;;;;;5093854;28;20477;-29
2023/11/27 01:20:30;;;;;;;26.17;15.35;;;;;;;;;;5093807;28;20407;-29
2023/11/27 01:22:55;;;;;;;26.38;14.32;;;;;;;;;;5093392;28;20055;-28
2023/11/27 01:25:21;;;;;;;26.63;14.73;;;;;;;;;;5094061;28;20098;-28
2023/11/27 01:27:47;;;;;;;25.25;14.02;;;;;;;;;;5092622;28;20716;-28
2023/11/27 01:30:12;;;;;;;25.60;13.60;;;;;;;;;;5094015;28;20052;-29
2023/11/27 01:32:39;;;;;;;22.08;13.35;;;;;;;;;;5093682;28;20020;-28
2023/11/27 01:35:04;;;;;;;23.40;13.25;;;;;;;;;;5093594;28;20023;-28
2023/11/27 01:37:29;;;;;;;26.27;13.32;;;;;;;;;;5094161;28;20111;-28
2023/11/27 01:39:54;;;;;;;28.08;14.48;;;;;;;;;;5093340;28;20122;-28
2023/11/27 01:42:20;;;;;;;24.23;12.97;;;;;;;;;;5093489;28;20024;-29
2023/11/27 01:44:45;;;;;;;22.42;13.48;;;;;;;;;;5093273;28;20676;-28
2023/11/27 01:47:10;;;;;;;22.15;13.48;;;;;;;;;;5093895;28;20099;-28
2023/11/27 01:49:37;;;;;;;26.45;13.45;;;;;;;;;;5093261;28;20105;-29
2023/11/27 01:52:03;;;;;;;21.23;12.32;;;;;;;;;;5093415;28;20036;-28
2023/11/27 01:54:29;;;;;;;26.92;13.18;;;;;;;;;;5093160;28;20024;-29
2023/11/27 01:56:55;;;;;;;20.10;12.77;;;;;;;;;;5093161;28;20101;-29
2023/11/27 01:59:20;;;;;;;23.52;12.10;;;;;;;;;;5093732;28;20031;-29
2023/11/27 02:01:45;;;;;;;21.60;12.60;;;;;;;;;;5093124;28;20024;-29
2023/11/27 02:04:11;;;;;;;20.88;11.73;;;;;;;;;;5093360;28;20019;-29
2023/11/27 02:06:36;;;;;;;20.40;11.48;;;;;;;;;;5093426;28;20070;-28
2023/11/27 02:09:01;;;;;;;22.02;11.55;;;;;;;;;;5093066;28;20043;-28
2023/11/27 02:11:27;;;;;;;21.90;11.23;;;;;;;;;;5093595;28;20016;-28
2023/11/27 02:13:52;;;;;;;23.48;11.35;;;;;;;;;;5093370;28;20027;-28
2023/11/27 02:16:18;;;;;;;25.90;10.38;;;;;;;;;;5093640;28;20052;-29
2023/11/27 02:18:43;;;;;;;22.45;11.05;;;;;;;;;;5075697;28;20020;-28
2023/11/27 02:21:09;;;;;;;19.70;10.15;;;;;;;;;;5093238;28;20088;-28
2023/11/27 02:23:34;;;;;;;18.00;10.02;;;;;;;;;;5093789;28;20052;-29
2023/11/27 02:26:00;;;;;;;20.23;10.80;;;;;;;;;;5093180;28;20016;-28
2023/11/27 02:28:25;;;;;;;21.02;10.52;;;;;;;;;;5093021;28;20254;-28
2023/11/27 02:30:50;;;;;;;15.07;9.90;;;;;;;;;;5093209;28;20020;-29
2023/11/27 02:33:16;;;;;;;19.37;9.90;;;;;;;;;;5093470;28;20024;-28
2023/11/27 02:35:41;;;;;;;20.88;10.60;;;;;;;;;;5093131;28;20300;-28
2023/11/27 02:38:06;;;;;;;17.77;10.15;;;;;;;;;;5093587;28;20474;-28
2023/11/27 02:40:31;;;;;;;18.17;9.83;;;;;;;;;;5096756;28;20055;-29
2023/11/27 02:42:57;;;;;;;18.57;9.63;;;;;;;;;;5096882;28;20336;-29
2023/11/27 02:45:22;;;;;;;19.08;9.13;;;;;;;;;;5096624;28;20261;-28
2023/11/27 02:47:47;;;;;;;16.30;8.50;;;;;;;;;;5096639;28;20046;-29
2023/11/27 02:50:13;;;;;;;17.20;9.80;;;;;;;;;;5096240;28;20265;-29
2023/11/27 02:52:39;;;;;;;15.05;8.95;;;;;;;;;;5096227;28;20250;-28
2023/11/27 02:55:05;;;;;;;21.08;9.43;;;;;;;;;;5096720;28;20024;-29
2023/11/27 02:57:30;;;;;;;15.68;9.05;;;;;;;;;;5096078;28;20048;-28
2023/11/27 02:59:56;;;;;;;16.25;9.02;;;;;;;;;;5096665;28;20012;-29
2023/11/27 03:02:21;;;;;;;17.00;9.10;;;;;;;;;;5096607;28;20070;-28
2023/11/27 03:04:46;;;;;;;13.88;7.97;;;;;;;;;;5096014;28;20596;-28
2023/11/27 03:07:11;;;;;;;15.90;8.55;;;;;;;;;;5095974;28;20474;-28
2023/11/27 03:09:37;;;;;;;15.13;8.00;;;;;;;;;;5096229;28;20016;-30
2023/11/27 03:12:03;;;;;;;16.15;7.95;;;;;;;;;;5096335;28;20023;-29
2023/11/27 03:14:28;;;;;;;14.90;7.40;;;;;;;;;;5096119;28;20434;-29
2023/11/27 03:16:53;;;;;;;13.95;7.03;;;;;;;;;;5096031;28;20020;-29
2023/11/27 03:19:19;;;;;;;12.00;7.25;;;;;;;;;;5095801;28;20032;-28
2023/11/27 03:21:45;;;;;;;15.63;7.00;;;;;;;;;;5095518;28;20371;-29
2023/11/27 03:24:10;;;;;;;11.55;7.18;;;;;;;;;;5095816;28;20254;-28
2023/11/27 03:26:35;;;;;;;12.48;7.10;;;;;;;;;;5095708;28;20019;-28
2023/11/27 03:29:01;;;;;;;12.53;6.77;;;;;;;;;;5096015;28;20027;-29
2023/11/27 03:31:26;;;;;;;11.90;6.93;;;;;;;;;;5095387;28;20258;-28
2023/11/27 03:33:52;;;;;;;13.85;6.82;;;;;;;;;;5095526;28;20459;-29
2023/11/27 03:36:17;;;;;;;10.32;6.32;;;;;;;;;;5095693;28;20382;-29
2023/11/27 03:38:42;;;;;;;13.07;7.43;;;;;;;;;;5095895;28;20019;-29
2023/11/27 03:41:15;;;;;;;13.10;7.38;;;;;;;;;;5095594;28;20062;-29
2023/11/27 03:43:40;;;;;;;12.80;7.03;;;;;;;;;;5095729;28;20027;-28
2023/11/27 03:46:05;;;;;;;9.33;6.43;;;;;;;;;;5095183;28;20379;-28
2023/11/27 03:48:31;;;;;;;11.05;7.00;;;;;;;;;;5095468;28;20261;-28
2023/11/27 03:50:56;;;;;;;14.47;7.43;;;;;;;;;;5095007;28;20052;-28
2023/11/27 03:53:21;;;;;;;12.07;7.40;;;;;;;;;;5076947;28;20816;-28
2023/11/27 03:55:46;;;;;;;15.98;7.72;;;;;;;;;;5094797;28;20277;-29
2023/11/27 03:58:11;;;;;;;16.90;7.70;;;;;;;;;;5095507;28;20023;-29
2023/11/27 04:00:37;;;;;;;13.43;7.63;;;;;;;;;;5095385;28;20082;-28
2023/11/27 04:03:02;;;;;;;11.63;7.22;;;;;;;;;;5095255;28;20107;-28
2023/11/27 04:05:28;;;;;;;11.27;7.30;;;;;;;;;;5094921;28;20139;-28
2023/11/27 04:07:53;;;;;;;9.77;6.23;;;;;;;;;;5094765;28;20427;-28
2023/11/27 04:10:19;;;;;;;11.30;7.27;;;;;;;;;;5094721;28;20308;-28
2023/11/27 04:12:44;;;;;;;11.23;6.80;;;;;;;;;;5094603;28;20286;-28
2023/11/27 04:15:10;;;;;;;10.75;6.93;;;;;;;;;;5094847;28;20036;-29
2023/11/27 04:17:35;;;;;;;11.18;7.07;;;;;;;;;;5095145;28;20055;-28
2023/11/27 04:20:05;;;;;;;11.33;7.20;;;;;;;;;;5094565;28;20020;-28
2023/11/27 04:22:30;;;;;;;10.77;6.43;;;;;;;;;;5094721;28;20760;-28
2023/11/27 04:24:55;;;;;;;9.10;5.50;;;;;;;;;;5094396;28;20064;-28
2023/11/27 04:27:21;;;;;;;9.38;5.75;;;;;;;;;;5094608;28;20406;-28
2023/11/27 04:29:46;;;;;;;9.47;6.33;;;;;;;;;;5094337;28;20513;-29
2023/11/27 04:32:11;;;;;;;7.93;5.20;;;;;;;;;;5094885;28;20282;-28
2023/11/27 04:34:36;;;;;;;10.83;6.20;;;;;;;;;;5094294;28;20455;-28
2023/11/27 04:37:01;;;;;;;10.33;6.10;;;;;;;;;;5094841;28;20258;-28
2023/11/27 04:39:27;;;;;;;9.02;6.10;;;;;;;;;;5094095;28;20760;-28
2023/11/27 04:41:52;;;;;;;12.53;6.07;;;;;;;;;;5094590;28;20028;-28
2023/11/27 04:44:19;;;;;;;9.07;6.07;;;;;;;;;;5094660;28;20250;-28
2023/11/27 04:46:44;;;;;;;8.68;6.18;;;;;;;;;;5094224;28;20255;-28
2023/11/27 04:49:11;;;;;;;8.38;5.60;;;;;;;;;;5094262;28;20509;-28
2023/11/27 04:51:36;;;;;;;8.25;5.72;;;;;;;;;;5094173;28;20020;-29
2023/11/27 04:54:03;;;;;;;10.50;5.73;;;;;;;;;;5094514;28;20031;-28
2023/11/27 04:56:28;;;;;;;9.00;5.57;;;;;;;;;;5093865;28;20352;-28
2023/11/27 04:58:53;;;;;;;7.10;5.10;;;;;;;;;;5075671;28;20020;-29
2023/11/27 05:01:18;;;;;;;7.53;5.57;;;;;;;;;;5094132;28;20254;-28
2023/11/27 05:03:43;;;;;;;6.73;5.03;;;;;;;;;;5093059;28;20421;-28
2023/11/27 05:06:12;;;;;;;7.53;4.90;;;;;;;;;;5093719;28;20281;-28
2023/11/27 05:08:37;;;;;;;7.28;5.18;;;;;;;;;;5093716;28;20269;-29
2023/11/27 05:11:02;;;;;;;7.77;5.00;;;;;;;;;;5093625;28;20020;-28
2023/11/27 05:13:28;;;;;;;7.57;4.90;;;;;;;;;;5094196;28;20341;-28
2023/11/27 05:15:53;;;;;;;6.53;4.70;;;;;;;;;;5093614;28;20016;-28
2023/11/27 05:18:18;;;;;;;6.90;5.17;;;;;;;;;;5094190;28;20249;-28
2023/11/27 05:20:43;;;;;;;6.60;4.67;;;;;;;;;;5093509;28;20360;-29
2023/11/27 05:23:08;;;;;;;6.30;4.40;;;;;;;;;;5094092;28;20344;-29
2023/11/27 05:25:33;;;;;;;6.53;4.90;;;;;;;;;;5075457;28;20302;-29
2023/11/27 05:27:59;;;;;;;6.73;4.87;;;;;;;;;;5093713;28;20254;-29
2023/11/27 05:30:24;;;;;;;6.53;4.55;;;;;;;;;;5094004;28;20251;-29
2023/11/27 05:32:50;;;;;;;6.90;4.88;;;;;;;;;;5093619;28;20074;-29
2023/11/27 05:35:15;;;;;;;7.32;5.10;;;;;;;;;;5093715;28;20486;-29
2023/11/27 05:37:40;;;;;;;10.10;5.05;;;;;;;;;;5093393;28;20020;-29
2023/11/27 05:40:06;;;;;;;9.23;5.93;;;;;;;;;;5093947;28;20055;-29
2023/11/27 05:42:39;;;;;;;8.05;5.45;;;;;;;;;;5093547;28;20371;-29
2023/11/27 05:45:04;;;;;;;7.78;4.78;;;;;;;;;;5093796;28;20019;-29
2023/11/27 05:47:30;;;;;;;9.27;4.93;;;;;;;;;;5094349;28;20024;-29
2023/11/27 05:49:56;;;;;;;8.15;4.50;;;;;;;;;;5093400;28;20091;-29
2023/11/27 05:52:21;;;;;;;7.15;4.55;;;;;;;;;;5093837;28;20121;-29
2023/11/27 05:54:46;;;;;;;8.63;5.40;;;;;;;;;;5093798;28;20066;-29
2023/11/27 05:57:11;;;;;;;8.00;4.90;;;;;;;;;;5093113;28;20418;-29
2023/11/27 05:59:37;;;;;;;7.20;4.97;;;;;;;;;;5093183;28;20383;-29
2023/11/27 06:02:02;;;;;;;6.32;4.40;;;;;;;;;;5093362;28;20274;-29
2023/11/27 06:04:28;;;;;;;7.25;5.00;;;;;;;;;;5093065;28;20447;-29
2023/11/27 06:06:53;;;;;;;5.60;4.47;;;;;;;;;;5075271;28;20054;-29
2023/11/27 06:09:18;;;;;;;6.47;4.30;;;;;;;;;;5093114;28;20024;-29
2023/11/27 06:11:43;;;;;;;8.23;4.38;;;;;;;;;;5093310;28;20286;-29
2023/11/27 06:14:08;;;;;;;6.57;4.75;;;;;;;;;;5094939;28;20016;-29
2023/11/27 06:16:33;;;;;;;6.43;4.25;;;;;;;;;;5097438;28;20020;-29
2023/11/27 06:18:59;;;;;;;6.78;4.15;;;;;;;;;;5097446;28;20024;-28
2023/11/27 06:21:24;;;;;;;5.90;3.70;;;;;;;;;;5096838;28;20463;-29
2023/11/27 06:23:51;;;;;;;5.30;3.30;;;;;;;;;;5096753;28;20028;-29
2023/11/27 06:26:16;;;;;;;6.47;3.92;;;;;;;;;;5096747;28;20027;-28
2023/11/27 06:28:43;;;;;;;4.38;3.25;;;;;;;;;;5096614;28;20024;-30
2023/11/27 06:31:09;;;;;;;5.15;3.45;;;;;;;;;;5096839;28;20077;-30
2023/11/27 06:33:34;;;;;;;4.55;3.53;;;;;;;;;;5096556;28;20020;-30
2023/11/27 06:36:00;;;;;;;7.03;3.70;;;;;;;;;;5097098;28;20020;-29
2023/11/27 06:38:25;;;;;;;7.38;3.78;;;;;;;;;;5096434;28;20259;-29
2023/11/27 06:40:50;;;;;;;5.67;3.57;;;;;;;;;;5097023;28;20027;-29
2023/11/27 06:43:15;;;;;;;4.60;3.13;;;;;;;;;;5096812;28;20357;-29
2023/11/27 06:45:41;;;;;;;5.43;3.35;;;;;;;;;;5096412;28;20258;-30
2023/11/27 06:48:06;;;;;;;5.40;3.50;;;;;;;;;;5096337;28;20026;-30
2023/11/27 06:50:31;;;;;;;5.47;3.40;;;;;;;;;;5096291;28;20586;-29
2023/11/27 06:52:57;;;;;;;4.30;3.40;;;;;;;;;;5096697;28;20300;-29
2023/11/27 06:55:22;;;;;;;6.20;3.80;;;;;;;;;;5096211;28;20097;-30
2023/11/27 06:57:48;;;;;;;5.47;3.90;;;;;;;;;;5096019;28;20077;-29
2023/11/27 07:00:15;;;;;;;4.95;3.67;;;;;;;;;;5095987;28;20341;-29
2023/11/27 07:02:40;;;;;;;6.15;3.90;;;;;;;;;;5096980;28;20047;-30
2023/11/27 07:05:05;;;;;;;5.53;3.90;;;;;;;;;;5096367;28;20040;-29
2023/11/27 07:07:31;;;;;;;4.43;3.55;;;;;;;;;;5095935;28;20541;-29
2023/11/27 07:09:56;;;;;;;7.10;4.03;;;;;;;;;;5096072;28;20481;-29
2023/11/27 07:12:21;;;;;;;5.15;3.60;;;;;;;;;;5096442;28;20032;-29
2023/11/27 07:14:46;;;;;;;5.80;4.10;;;;;;;;;;5095808;28;20043;-29
2023/11/27 07:17:12;;;;;;;7.70;4.50;;;;;;;;;;5096296;28;20095;-29
2023/11/27 07:19:39;;;;;;;6.03;4.50;;;;;;;;;;5096505;28;20269;-29
2023/11/27 07:22:04;;;;;;;5.30;3.75;;;;;;;;;;5095516;28;20020;-29
2023/11/27 07:24:30;;;;;;;6.20;4.10;;;;;;;;;;5095572;28;20020;-30
2023/11/27 07:26:55;;;;;;;5.45;3.90;;;;;;;;;;5095187;28;20081;-30
2023/11/27 07:29:20;;;;;;;5.33;3.97;;;;;;;;;;5095556;28;20012;-29
2023/11/27 07:31:46;;;;;;;5.40;3.85;;;;;;;;;;5096065;28;20285;-29
2023/11/27 07:34:12;;;;;;;6.10;4.13;;;;;;;;;;5077584;28;20012;-29
2023/11/27 07:36:38;;;;;;;6.28;3.95;;;;;;;;;;5095302;28;20012;-30
2023/11/27 07:39:03;;;;;;;6.78;4.60;;;;;;;;;;5094736;28;20356;-29
2023/11/27 07:41:28;;;;;;;7.05;4.25;;;;;;;;;;5095090;28;20482;-30
2023/11/27 07:43:55;;;;;;;8.23;4.53;;;;;;;;;;5094866;28;20479;-29
2023/11/27 07:46:21;;;;;;;6.03;4.28;;;;;;;;;;5094855;28;20258;-29
2023/11/27 07:48:46;;;;;;;6.03;4.50;;;;;;;;;;5094879;28;20020;-29
2023/11/27 07:51:11;;;;;;;5.60;4.32;;;;;;;;;;5095035;28;20258;-29
2023/11/27 07:53:37;;;;;;;5.53;4.18;;;;;;;;;;5095039;28;20031;-29
2023/11/27 07:56:03;;;;;;;6.03;4.30;;;;;;;;;;5095226;28;20071;-30
2023/11/27 07:58:28;;;;;;;6.05;4.10;;;;;;;;;;5094940;28;20254;-29
2023/11/27 08:00:53;;;;;;;7.30;4.55;;;;;;;;;;5095085;28;20055;-29
2023/11/27 08:03:19;;;;;;;6.53;4.57;;;;;;;;;;5095102;28;20110;-29
2023/11/27 08:05:44;;;;;;;7.03;4.47;;;;;;;;;;5094727;28;20510;-29
2023/11/27 08:08:10;;;;;;;6.10;4.20;;;;;;;;;;5095322;28;20016;-29
2023/11/27 08:10:36;;;;;;;6.00;4.00;;;;;;;;;;5094745;28;20308;-30
2023/11/27 08:13:01;;;;;;;6.95;4.40;;;;;;;;;;5094931;28;20020;-29
2023/11/27 08:15:26;;;;;;;5.15;3.95;;;;;;;;;;5094936;28;20020;-29
2023/11/27 08:17:54;;;;;;;6.20;4.00;;;;;;;;;;5094945;28;20066;-30
2023/11/27 08:20:23;;;;;;;5.40;3.78;;;;;;;;;;5094517;28;20019;-29
2023/11/27 08:22:48;;;;;;;6.00;4.53;;;;;;;;;;5094701;28;20454;-29
2023/11/27 08:25:16;;;;;;;5.47;3.83;;;;;;;;;;5094484;28;20053;-29
2023/11/27 08:27:42;;;;;;;4.97;3.67;;;;;;;;;;5094758;28;20405;-29
2023/11/27 08:30:09;;;;;;;5.43;4.10;;;;;;;;;;5094301;28;20055;-29
2023/11/27 08:32:35;;;;;;;6.20;4.30;;;;;;;;;;5094629;28;20116;-29
2023/11/27 08:35:00;;;;;;;5.65;4.30;;;;;;;;;;5094590;28;20020;-29
2023/11/27 08:37:25;;;;;;;6.50;4.40;;;;;;;;;;5094648;28;20023;-29
2023/11/27 08:39:50;;;;;;;5.77;3.67;;;;;;;;;;5094802;28;20304;-29
2023/11/27 08:42:15;;;;;;;5.17;3.90;;;;;;;;;;5094090;28;20607;-30
2023/11/27 08:44:41;;;;;;;5.82;3.92;;;;;;;;;;5094215;28;20312;-29
2023/11/27 08:47:06;;;;;;;5.53;3.75;;;;;;;;;;5094373;28;20008;-29
2023/11/27 08:49:31;;;;;;;5.20;3.75;;;;;;;;;;5094352;28;20012;-29
2023/11/27 08:51:56;;;;;;;5.30;3.90;;;;;;;;;;5094169;28;20020;-29
2023/11/27 08:54:24;;;;;;;5.70;4.30;;;;;;;;;;5093689;28;20258;-30
2023/11/27 08:56:51;;;;;;;6.53;4.20;;;;;;;;;;5093746;28;20319;-29
2023/11/27 08:59:16;;;;;;;5.47;3.97;;;;;;;;;;5094189;28;20430;-29
2023/11/27 09:01:42;;;;;;;6.07;3.97;;;;;;;;;;5093839;28;20024;-29
2023/11/27 09:04:09;;;;;;;5.00;3.72;;;;;;;;;;5093733;28;20250;-29
2023/11/27 09:06:35;;;;;;;5.05;3.67;;;;;;;;;;5094062;28;20008;-29
2023/11/27 09:09:00;;;;;;;6.05;3.90;;;;;;;;;;5093574;28;20378;-30
2023/11/27 09:11:26;;;;;;;7.20;4.13;;;;;;;;;;5093899;28;20012;-29
2023/11/27 09:13:51;;;;;;;4.72;3.65;;;;;;;;;;5093624;28;20020;-29
2023/11/27 09:16:16;;;;;;;6.32;4.32;;;;;;;;;;5094200;28;20024;-30
2023/11/27 09:18:41;;;;;;;5.70;3.95;;;;;;;;;;5093668;28;20043;-29
2023/11/27 09:21:07;;;;;;;5.00;4.00;;;;;;;;;;5093529;28;20062;-30
2023/11/27 09:23:32;;;;;;;5.60;4.20;;;;;;;;;;5093738;28;20310;-29
2023/11/27 09:25:58;;;;;;;5.45;4.25;;;;;;;;;;5093545;28;20522;-29
2023/11/27 09:28:23;;;;;;;4.90;3.72;;;;;;;;;;5093807;28;20051;-29
2023/11/27 09:30:49;;;;;;;5.03;3.80;;;;;;;;;;5093422;28;20085;-29
2023/11/27 09:33:14;;;;;;;5.00;3.80;;;;;;;;;;5093450;28;20016;-29
2023/11/27 09:35:39;;;;;;;4.93;3.83;;;;;;;;;;5093705;28;20476;-29
2023/11/27 09:38:08;;;;;;;5.13;3.80;;;;;;;;;;5093471;28;20092;-29
2023/11/27 09:40:37;;;;;;;4.72;3.80;;;;;;;;;;5093591;28;20265;-29
2023/11/27 09:43:03;;;;;;;5.18;3.75;;;;;;;;;;5093258;28;20117;-29
2023/11/27 09:45:28;;;;;;;5.20;3.83;;;;;;;;;;5093306;28;20044;-30
2023/11/27 09:47:54;;;;;;;3.97;3.33;;;;;;;;;;5093371;28;20023;-29
2023/11/27 09:50:20;;;;;;;5.57;3.75;;;;;;;;;;5097270;28;20024;-30
2023/11/27 09:52:48;;;;;;;4.40;3.55;;;;;;;;;;5097434;28;20020;-29
2023/11/27 09:55:14;;;;;;;5.65;4.03;;;;;;;;;;5097427;28;20082;-30
2023/11/27 09:57:43;;;;;;;4.78;3.72;;;;;;;;;;5097876;28;20024;-29
2023/11/27 10:00:09;;;;;;;5.22;4.07;;;;;;;;;;5097523;28;20032;-29
2023/11/27 10:02:35;;;;;;;4.78;3.80;;;;;;;;;;5097464;28;20020;-29
2023/11/27 10:05:04;;;;;;;5.25;3.78;;;;;;;;;;5097624;28;20039;-30
2023/11/27 10:07:31;;;;;;;4.90;3.97;;;;;;;;;;5097397;28;20466;-29
2023/11/27 10:09:56;;;;;;;5.00;4.00;;;;;;;;;;5097380;28;20031;-30
2023/11/27 10:12:24;;;;;;;5.03;3.85;;;;;;;;;;5096943;28;20028;-29
2023/11/27 10:14:51;;;;;;;5.30;3.80;;;;;;;;;;5097298;28;20020;-29
2023/11/27 10:17:17;;;;;;;4.88;3.90;;;;;;;;;;5096870;28;20099;-29
2023/11/27 10:19:44;;;;;;;4.88;3.75;;;;;;;;;;5096938;28;20066;-29
2023/11/27 10:22:11;;;;;;;5.35;3.70;;;;;;;;;;5096805;28;20017;-30
2023/11/27 10:24:36;;;;;;;6.38;3.60;;;;;;;;;;5096783;28;20376;-29
2023/11/27 10:27:07;;;;;;;5.40;3.95;;;;;;;;;;5096780;28;20027;-29
2023/11/27 10:29:33;;;;;;;5.03;3.67;;;;;;;;;;5097260;28;20062;-29
2023/11/27 10:31:58;;;;;;;4.97;3.65;;;;;;;;;;5097754;28;20066;-30
2023/11/27 10:34:27;;;;;;;4.50;3.42;;;;;;;;;;5096938;28;20012;-29
2023/11/27 10:36:57;;;;;;;5.07;3.60;;;;;;;;;;5097154;28;20062;-29
2023/11/27 10:39:25;;;;;;;4.70;3.60;;;;;;;;;;5096797;28;20016;-29
2023/11/27 10:41:53;;;;;;;5.68;4.28;;;;;;;;;;5096379;28;20065;-30
2023/11/27 10:44:19;;;;;;;5.05;3.72;;;;;;;;;;5096472;28;20020;-29
2023/11/27 10:46:45;;;;;;;4.80;3.97;;;;;;;;;;5096675;28;20506;-29
2023/11/27 10:49:14;;;;;;;7.97;3.92;;;;;;;;;;5096392;28;20047;-30
2023/11/27 10:51:39;;;;;;;5.05;4.10;;;;;;;;;;5078218;28;20047;-29
2023/11/27 10:54:05;;;;;;;5.53;4.00;;;;;;;;;;5096289;28;20071;-30
2023/11/27 10:56:30;;;;;;;5.10;3.88;;;;;;;;;;5096008;28;20078;-30
2023/11/27 10:58:59;;;;;;;7.53;4.50;;;;;;;;;;5096223;28;20059;-29
2023/11/27 11:01:26;;;;;;;5.35;4.20;;;;;;;;;;5096119;28;20024;-29
2023/11/27 11:03:53;;;;;;;7.38;3.92;;;;;;;;;;5096101;28;20103;-30
2023/11/27 11:06:20;;;;;;;6.78;4.15;;;;;;;;;;5096294;28;20024;-29
2023/11/27 11:08:49;;;;;;;8.20;4.00;;;;;;;;;;5096065;28;20142;-30
2023/11/27 11:11:14;;;;;;;5.45;4.00;;;;;;;;;;5095742;28;20020;-30
2023/11/27 11:13:40;;;;;;;4.57;3.75;;;;;;;;;;5095914;28;20024;-30
2023/11/27 11:16:08;;;;;;;9.52;4.60;;;;;;;;;;5096058;28;20043;-29
2023/11/27 11:18:52;;;;;;;4.90;3.70;;;;;;;;;;5095718;28;20035;-29
2023/11/27 11:21:23;;;;;;;5.28;3.88;;;;;;;;;;5077857;28;20023;-29
2023/11/27 11:23:52;;;;;;;5.20;4.10;;;;;;;;;;5096301;28;20028;-29
2023/11/27 11:26:32;;;;;;;4.55;3.80;;;;;;;;;;5095909;28;20501;-30
2023/11/27 11:29:11;;;;;;;4.15;3.33;;;;;;;;;;5096214;28;20099;-30
2023/11/27 11:31:43;;;;;;;4.75;3.60;;;;;;;;;;5096058;28;20015;-30
2023/11/27 11:34:08;;;;;;;4.88;3.70;;;;;;;;;;5095518;28;20016;-29
2023/11/27 11:36:34;;;;;;;5.33;3.53;;;;;;;;;;5095462;28;20367;-29
2023/11/27 11:39:00;;;;;;;4.85;3.60;;;;;;;;;;5095555;28;20250;-29
2023/11/27 11:41:31;;;;;;;4.60;3.90;;;;;;;;;;5095261;28;20016;-29
2023/11/27 11:44:00;;;;;;;5.78;4.15;;;;;;;;;;5095235;28;20114;-29
2023/11/27 11:46:28;;;;;;;4.57;3.85;;;;;;;;;;5095828;28;20015;-29
2023/11/27 11:48:55;;;;;;;4.78;3.83;;;;;;;;;;5095483;28;20093;-29
2023/11/27 11:51:20;;;;;;;4.85;3.83;;;;;;;;;;5095282;28;20038;-29
2023/11/27 11:53:47;;;;;;;4.38;3.45;;;;;;;;;;5095891;28;20020;-30
2023/11/27 11:56:19;;;;;;;5.63;3.88;;;;;;;;;;5094901;28;20074;-30
2023/11/27 11:58:45;;;;;;;5.18;3.90;;;;;;;;;;5095077;28;20096;-29
2023/11/27 12:01:10;;;;;;;6.68;3.90;;;;;;;;;;5094926;28;20052;-29
2023/11/27 12:03:36;;;;;;;4.40;3.55;;;;;;;;;;5095026;28;20016;-29
2023/11/27 12:06:13;;;;;;;4.30;3.40;;;;;;;;;;5095037;28;20070;-30
2023/11/27 12:08:39;;;;;;;5.95;3.60;;;;;;;;;;5095068;28;20016;-29
2023/11/27 12:11:05;;;;;;;4.30;3.35;;;;;;;;;;5094104;28;20054;-30
2023/11/27 12:13:37;;;;;;;4.03;3.42;;;;;;;;;;5094427;28;20020;-29
2023/11/27 12:16:11;;;;;;;5.10;3.95;;;;;;;;;;5094554;28;20105;-30
2023/11/27 12:18:36;;;;;;;4.18;3.70;;;;;;;;;;5094950;28;20024;-29
2023/11/27 12:21:05;;;;;;;4.47;3.15;;;;;;;;;;5094603;28;20118;-29
2023/11/27 12:23:38;;;;;;;4.40;3.65;;;;;;;;;;5094359;28;20023;-29
2023/11/27 12:26:06;;;;;;;5.57;3.72;;;;;;;;;;5094450;28;20046;-29
2023/11/27 12:28:34;;;;;;;6.00;3.78;;;;;;;;;;5094401;28;20021;-29
2023/11/27 12:30:59;;;;;;;10.50;4.07;;;;;;;;;;5094604;28;20027;-30
2023/11/27 12:33:27;;;;;;;6.97;4.15;;;;;;;;;;5094599;28;20016;-29
2023/11/27 12:35:52;;;;;;;6.68;4.40;;;;;;;;;;5094237;28;20035;-29
2023/11/27 12:38:18;;;;;;;7.50;4.57;;;;;;;;;;5094217;28;20070;-30
2023/11/27 12:40:47;;;;;;;7.78;4.97;;;;;;;;;;5094500;28;20023;-29
2023/11/27 12:43:18;;;;;;;7.57;4.85;;;;;;;;;;5093943;28;20129;-29
2023/11/27 12:45:43;;;;;;;6.65;4.40;;;;;;;;;;5094236;28;20510;-29
2023/11/27 12:48:08;;;;;;;5.07;4.07;;;;;;;;;;5094649;28;20047;-29
2023/11/27 12:50:39;;;;;;;5.87;4.30;;;;;;;;;;5094653;28;20020;-29
2023/11/27 12:53:09;;;;;;;6.20;3.88;;;;;;;;;;5094041;28;20246;-29
2023/11/27 12:55:37;;;;;;;5.80;4.20;;;;;;;;;;5093952;28;20475;-30
2023/11/27 12:58:03;;;;;;;6.65;4.63;;;;;;;;;;5093888;28;20035;-29
2023/11/27 13:00:31;;;;;;;6.03;4.45;;;;;;;;;;5093775;28;20026;-30
2023/11/27 13:02:56;;;;;;;5.55;4.35;;;;;;;;;;5094036;28;20031;-30
2023/11/27 13:05:22;;;;;;;5.63;3.83;;;;;;;;;;5094198;28;20363;-29
2023/11/27 13:07:56;;;;;;;5.80;4.30;;;;;;;;;;5094225;28;20270;-29
2023/11/27 13:10:21;;;;;;;5.68;4.40;;;;;;;;;;5093731;28;20377;-30
2023/11/27 13:12:49;;;;;;;5.97;4.37;;;;;;;;;;5093873;28;20052;-29
2023/11/27 13:15:21;;;;;;;5.30;4.30;;;;;;;;;;5093636;28;20261;-29
2023/11/27 13:17:56;;;;;;;5.15;4.10;;;;;;;;;;5093941;28;20026;-29
2023/11/27 13:20:26;;;;;;;4.75;4.07;;;;;;;;;;5093584;28;20024;-29
2023/11/27 13:22:52;;;;;;;5.10;4.10;;;;;;;;;;5093079;28;20017;-30
2023/11/27 13:25:17;;;;;;;5.88;4.20;;;;;;;;;;5075372;28;20016;-30
2023/11/27 13:27:46;;;;;;;5.15;4.30;;;;;;;;;;5093506;28;20051;-30
2023/11/27 13:30:26;;;;;;;5.75;4.50;;;;;;;;;;5093816;28;20070;-30
2023/11/27 13:32:52;;;;;;;5.15;4.43;;;;;;;;;;5093795;28;20026;-30
2023/11/27 13:35:29;;;;;;;4.95;4.05;;;;;;;;;;5094482;28;20020;-30
2023/11/27 13:37:54;;;;;;;5.60;4.20;;;;;;;;;;5093558;28;20015;-30
2023/11/27 13:40:23;;;;;;;5.05;3.95;;;;;;;;;;5093561;28;20107;-30
2023/11/27 13:42:50;;;;;;;6.88;4.38;;;;;;;;;;5093234;28;20030;-30
2023/11/27 13:45:16;;;;;;;6.18;4.70;;;;;;;;;;5093507;28;20021;-31
2023/11/27 13:47:43;;;;;;;5.82;4.38;;;;;;;;;;5093274;28;20012;-30
2023/11/27 13:50:09;;;;;;;6.32;4.78;;;;;;;;;;5093172;28;20013;-30
2023/11/27 13:52:34;;;;;;;5.70;4.40;;;;;;;;;;5093135;28;20067;-30
2023/11/27 13:55:00;;;;;;;5.68;4.68;;;;;;;;;;5093729;28;20048;-29
2023/11/27 13:57:32;;;;;;;6.13;5.32;;;;;;;;;;5092963;28;20060;-30
2023/11/27 13:59:57;;;;;;;6.20;4.97;;;;;;;;;;5093427;28;20024;-30
2023/11/27 14:02:27;;;;;;;5.95;4.80;;;;;;;;;;5074944;28;20107;-30
2023/11/27 14:05:05;;;;;;;7.93;5.32;;;;;;;;;;5093421;28;20489;-30
2023/11/27 14:07:34;;;;;;;5.95;5.10;;;;;;;;;;5093106;28;20024;-30
2023/11/27 14:10:04;;;;;;;7.43;5.53;;;;;;;;;;5093429;28;20027;-30
2023/11/27 14:12:38;;;;;;;6.57;5.55;;;;;;;;;;5093293;28;20483;-27
2023/11/27 14:15:17;;;;;;;9.30;5.47;;;;;;;;;;5093009;28;20103;-30
2023/11/27 14:17:44;;;;;;;6.18;5.35;;;;;;;;;;5093031;28;20024;-30
2023/11/27 14:23:04;;;;;;;10.13;5.50;;;;;;;;;;5093136;28;20039;-30
2023/11/27 14:28:30;;;;;;;7.70;6.00;;;;;;;;;;5092963;28;20337;-30
2023/11/27 14:30:55;;;;;;;7.40;5.93;;;;;;;;;;5092914;28;20036;-30
2023/11/27 14:33:21;;;;;;;9.38;6.75;;;;;;;;;;5092870;28;20055;-30
2023/11/27 14:35:47;;;;;;;11.82;5.63;;;;;;;;;;5095907;28;20078;-31